CCA57 ZHES-ZUUU
Flight info
| Callsign | CCA57 |
|---|---|
| Flight time | N/A |
| Altitude | FL381 |
| Route | SOSN2D SOSNU V155 BONPI W231 EKOKA EKOK6K |
| Aircraft | A21N/M-SDE2E3FGHIJ1RWXY/LB1 |
Departure
| Time | N/A |
|---|---|
| Airport | Enshi Xujiaping Airport (ZHES) |
Arrival
| Time | 2026-04-29 14:54 |
|---|---|
| Airport | Chengdu Shuangliu International Airport (ZUUU) |
| Time | Latitude | Longitude | Altitude | Speed | Heading |
|---|---|---|---|---|---|
| 2026-04-29 14:01 | 30.85297 | 109.45854 | 38332 ft | 389 kts | 290° |
| 2026-04-29 14:01 | 30.86295 | 109.42925 | 38315 ft | 390 kts | 290° |
| 2026-04-29 14:02 | 30.88257 | 109.37060 | 38305 ft | 389 kts | 288° |
| 2026-04-29 14:02 | 30.89114 | 109.30882 | 38294 ft | 391 kts | 272° |
| 2026-04-29 14:03 | 30.89036 | 109.24566 | 38280 ft | 391 kts | 271° |
| 2026-04-29 14:03 | 30.88982 | 109.18286 | 38583 ft | 388 kts | 271° |
| 2026-04-29 14:04 | 30.88960 | 109.15156 | 38383 ft | 387 kts | 272° |
| 2026-04-29 14:04 | 30.88944 | 109.12040 | 38317 ft | 384 kts | 272° |
| 2026-04-29 14:04 | 30.88904 | 109.05790 | 38271 ft | 389 kts | 272° |
| 2026-04-29 14:05 | 30.88845 | 108.99480 | 38269 ft | 391 kts | 272° |
| 2026-04-29 14:05 | 30.88823 | 108.96346 | 38096 ft | 383 kts | 272° |
| 2026-04-29 14:05 | 30.88802 | 108.93249 | 37267 ft | 385 kts | 272° |
| 2026-04-29 14:06 | 30.88767 | 108.90133 | 36412 ft | 386 kts | 272° |
| 2026-04-29 14:06 | 30.88736 | 108.87006 | 35539 ft | 390 kts | 269° |
| 2026-04-29 14:06 | 30.88695 | 108.83810 | 34915 ft | 398 kts | 268° |
| 2026-04-29 14:06 | 30.88659 | 108.80594 | 34533 ft | 399 kts | 268° |
| 2026-04-29 14:07 | 30.88627 | 108.77366 | 34354 ft | 401 kts | 269° |
| 2026-04-29 14:07 | 30.88603 | 108.74116 | 34260 ft | 403 kts | 269° |
| 2026-04-29 14:07 | 30.88510 | 108.67592 | 34192 ft | 404 kts | 268° |
| 2026-04-29 14:08 | 30.88438 | 108.61049 | 34231 ft | 406 kts | 269° |
| 2026-04-29 14:08 | 30.88363 | 108.54495 | 34195 ft | 406 kts | 269° |
| 2026-04-29 14:09 | 30.88279 | 108.47952 | 34201 ft | 405 kts | 269° |
| 2026-04-29 14:09 | 30.88180 | 108.41404 | 34205 ft | 406 kts | 269° |
| 2026-04-29 14:10 | 30.88079 | 108.34844 | 34202 ft | 406 kts | 269° |
| 2026-04-29 14:10 | 30.87993 | 108.28280 | 34229 ft | 407 kts | 269° |
| 2026-04-29 14:11 | 30.87891 | 108.21718 | 34225 ft | 406 kts | 269° |
| 2026-04-29 14:11 | 30.87791 | 108.15153 | 34217 ft | 407 kts | 269° |
| 2026-04-29 14:12 | 30.87699 | 108.08591 | 34219 ft | 407 kts | 269° |
| 2026-04-29 14:12 | 30.87609 | 108.02021 | 34223 ft | 407 kts | 269° |
| 2026-04-29 14:13 | 30.87498 | 107.95449 | 34215 ft | 407 kts | 269° |
| 2026-04-29 14:13 | 30.87392 | 107.88878 | 34228 ft | 407 kts | 269° |
| 2026-04-29 14:14 | 30.87284 | 107.82318 | 34230 ft | 406 kts | 269° |
| 2026-04-29 14:14 | 30.87167 | 107.75751 | 34228 ft | 406 kts | 269° |
| 2026-04-29 14:15 | 30.87045 | 107.69192 | 34225 ft | 406 kts | 270° |
| 2026-04-29 14:15 | 30.86927 | 107.62643 | 34240 ft | 405 kts | 270° |
| 2026-04-29 14:16 | 30.86794 | 107.56098 | 34233 ft | 406 kts | 270° |
| 2026-04-29 14:16 | 30.86667 | 107.49535 | 34238 ft | 406 kts | 270° |
| 2026-04-29 14:17 | 30.86536 | 107.42963 | 34229 ft | 408 kts | 269° |
| 2026-04-29 14:17 | 30.86339 | 107.36380 | 34233 ft | 406 kts | 269° |
| 2026-04-29 14:18 | 30.86041 | 107.29841 | 34232 ft | 405 kts | 269° |
| 2026-04-29 14:18 | 30.85755 | 107.23303 | 34232 ft | 405 kts | 269° |
| 2026-04-29 14:19 | 30.85473 | 107.16762 | 34223 ft | 405 kts | 269° |
| 2026-04-29 14:19 | 30.85180 | 107.10222 | 34242 ft | 406 kts | 269° |
| 2026-04-29 14:20 | 30.84885 | 107.03689 | 34223 ft | 405 kts | 269° |
| 2026-04-29 14:20 | 30.84592 | 106.97179 | 34228 ft | 403 kts | 269° |
| 2026-04-29 14:21 | 30.84291 | 106.90680 | 34232 ft | 403 kts | 269° |
| 2026-04-29 14:21 | 30.83987 | 106.84172 | 34235 ft | 403 kts | 269° |
| 2026-04-29 14:22 | 30.83680 | 106.77673 | 34237 ft | 403 kts | 269° |
| 2026-04-29 14:22 | 30.83365 | 106.71168 | 34234 ft | 403 kts | 269° |
| 2026-04-29 14:23 | 30.83048 | 106.64687 | 34230 ft | 401 kts | 270° |
| 2026-04-29 14:23 | 30.82736 | 106.58222 | 34232 ft | 401 kts | 270° |
| 2026-04-29 14:24 | 30.82418 | 106.51748 | 34235 ft | 401 kts | 270° |
| 2026-04-29 14:24 | 30.81944 | 106.45300 | 34235 ft | 404 kts | 264° |
| 2026-04-29 14:25 | 30.80825 | 106.38897 | 34236 ft | 405 kts | 263° |
| 2026-04-29 14:25 | 30.79658 | 106.32503 | 34237 ft | 405 kts | 263° |
| 2026-04-29 14:26 | 30.78492 | 106.26124 | 34234 ft | 404 kts | 263° |
| 2026-04-29 14:26 | 30.77328 | 106.19744 | 34235 ft | 404 kts | 263° |
| 2026-04-29 14:27 | 30.76159 | 106.13373 | 34228 ft | 403 kts | 264° |
| 2026-04-29 14:28 | 30.74407 | 106.03838 | 34239 ft | 403 kts | 264° |
| 2026-04-29 14:28 | 30.73450 | 105.97459 | 34230 ft | 401 kts | 266° |
| 2026-04-29 14:29 | 30.72551 | 105.91078 | 34237 ft | 400 kts | 266° |
| 2026-04-29 14:29 | 30.71647 | 105.84710 | 34258 ft | 401 kts | 266° |
| 2026-04-29 14:30 | 30.70719 | 105.78342 | 34237 ft | 401 kts | 266° |
| 2026-04-29 14:30 | 30.69804 | 105.71964 | 34251 ft | 401 kts | 266° |
| 2026-04-29 14:31 | 30.68895 | 105.65588 | 34249 ft | 401 kts | 266° |
| 2026-04-29 14:31 | 30.67972 | 105.59211 | 34257 ft | 401 kts | 266° |
| 2026-04-29 14:32 | 30.67055 | 105.52833 | 34264 ft | 401 kts | 266° |
| 2026-04-29 14:32 | 30.66598 | 105.49663 | 34452 ft | 397 kts | 266° |
| 2026-04-29 14:32 | 30.66136 | 105.46499 | 34655 ft | 399 kts | 266° |
| 2026-04-29 14:33 | 30.65240 | 105.40169 | 34764 ft | 397 kts | 267° |
| 2026-04-29 14:33 | 30.64794 | 105.37017 | 34941 ft | 397 kts | 267° |
| 2026-04-29 14:33 | 30.64340 | 105.33862 | 34842 ft | 396 kts | 267° |
| 2026-04-29 14:33 | 30.63889 | 105.30716 | 34687 ft | 396 kts | 267° |
| 2026-04-29 14:34 | 30.63424 | 105.27575 | 34508 ft | 398 kts | 266° |
| 2026-04-29 14:34 | 30.62731 | 105.24443 | 34318 ft | 406 kts | 259° |
| 2026-04-29 14:34 | 30.61595 | 105.21405 | 34217 ft | 417 kts | 250° |
| 2026-04-29 14:34 | 30.59995 | 105.18555 | 34262 ft | 429 kts | 242° |
| 2026-04-29 14:35 | 30.58066 | 105.15898 | 34302 ft | 433 kts | 239° |
| 2026-04-29 14:35 | 30.54093 | 105.10666 | 34336 ft | 432 kts | 238° |
| 2026-04-29 14:36 | 30.50155 | 105.05425 | 34305 ft | 432 kts | 239° |
| 2026-04-29 14:36 | 30.46223 | 105.00175 | 34292 ft | 432 kts | 239° |
| 2026-04-29 14:37 | 30.42286 | 104.94927 | 34272 ft | 433 kts | 239° |
| 2026-04-29 14:37 | 30.38890 | 104.89369 | 34246 ft | 413 kts | 253° |
| 2026-04-29 14:38 | 30.36964 | 104.83252 | 34255 ft | 403 kts | 261° |
| 2026-04-29 14:38 | 30.35256 | 104.77088 | 34257 ft | 403 kts | 261° |
| 2026-04-29 14:39 | 30.33520 | 104.70927 | 34255 ft | 403 kts | 261° |
| 2026-04-29 14:39 | 30.31799 | 104.64892 | 33061 ft | 388 kts | 260° |
| 2026-04-29 14:39 | 30.30962 | 104.61939 | 31784 ft | 386 kts | 260° |
| 2026-04-29 14:40 | 30.30126 | 104.58989 | 30538 ft | 387 kts | 259° |
| 2026-04-29 14:40 | 30.29283 | 104.56036 | 29123 ft | 388 kts | 258° |
| 2026-04-29 14:40 | 30.28439 | 104.53070 | 27750 ft | 388 kts | 257° |
| 2026-04-29 14:40 | 30.27647 | 104.50110 | 26456 ft | 384 kts | 260° |
| 2026-04-29 14:41 | 30.27046 | 104.47123 | 25252 ft | 380 kts | 262° |
| 2026-04-29 14:41 | 30.26492 | 104.44158 | 24118 ft | 376 kts | 261° |
| 2026-04-29 14:41 | 30.25941 | 104.41217 | 22901 ft | 373 kts | 261° |
| 2026-04-29 14:41 | 30.25391 | 104.38320 | 21801 ft | 367 kts | 261° |
| 2026-04-29 14:42 | 30.24853 | 104.35475 | 20783 ft | 360 kts | 260° |
| 2026-04-29 14:42 | 30.24324 | 104.32675 | 19999 ft | 350 kts | 260° |
| 2026-04-29 14:42 | 30.23816 | 104.29993 | 19497 ft | 334 kts | 260° |
| 2026-04-29 14:42 | 30.23329 | 104.27424 | 18903 ft | 324 kts | 260° |
| 2026-04-29 14:43 | 30.23051 | 104.24878 | 18129 ft | 318 kts | 274° |
| 2026-04-29 14:43 | 30.23427 | 104.22397 | 17305 ft | 313 kts | 288° |
| 2026-04-29 14:43 | 30.24121 | 104.20027 | 16472 ft | 311 kts | 290° |
| 2026-04-29 14:43 | 30.24845 | 104.17687 | 15666 ft | 309 kts | 289° |
| 2026-04-29 14:44 | 30.25563 | 104.15363 | 14893 ft | 307 kts | 288° |
| 2026-04-29 14:44 | 30.26275 | 104.13047 | 14138 ft | 305 kts | 288° |
| 2026-04-29 14:44 | 30.26972 | 104.10744 | 13346 ft | 303 kts | 288° |
| 2026-04-29 14:44 | 30.27654 | 104.08463 | 12615 ft | 298 kts | 287° |
| 2026-04-29 14:45 | 30.28307 | 104.06205 | 11865 ft | 295 kts | 287° |
| 2026-04-29 14:45 | 30.28953 | 104.03974 | 11179 ft | 291 kts | 288° |
| 2026-04-29 14:45 | 30.29596 | 104.01775 | 10490 ft | 287 kts | 288° |
| 2026-04-29 14:45 | 30.30233 | 103.99603 | 9787 ft | 284 kts | 288° |
| 2026-04-29 14:46 | 30.30865 | 103.97453 | 9026 ft | 282 kts | 288° |
| 2026-04-29 14:46 | 30.31490 | 103.95322 | 8391 ft | 276 kts | 288° |
| 2026-04-29 14:46 | 30.32085 | 103.93279 | 8055 ft | 260 kts | 289° |
| 2026-04-29 14:46 | 30.32647 | 103.91357 | 7742 ft | 246 kts | 289° |
| 2026-04-29 14:47 | 30.33180 | 103.89549 | 7486 ft | 229 kts | 289° |
| 2026-04-29 14:47 | 30.33688 | 103.87918 | 7358 ft | 202 kts | 294° |
| 2026-04-29 14:47 | 30.34497 | 103.86761 | 7291 ft | 174 kts | 320° |
| 2026-04-29 14:47 | 30.35583 | 103.86239 | 6822 ft | 177 kts | 357° |
| 2026-04-29 14:48 | 30.36603 | 103.86569 | 6605 ft | 150 kts | 20° |
| 2026-04-29 14:48 | 30.37520 | 103.86977 | 6293 ft | 133 kts | 20° |
| 2026-04-29 14:48 | 30.38365 | 103.87352 | 5914 ft | 128 kts | 20° |
| 2026-04-29 14:48 | 30.39215 | 103.87740 | 5220 ft | 143 kts | 20° |
| 2026-04-29 14:49 | 30.40187 | 103.88156 | 4473 ft | 150 kts | 21° |
| 2026-04-29 14:49 | 30.41136 | 103.88611 | 4109 ft | 145 kts | 24° |
| 2026-04-29 14:49 | 30.42065 | 103.89057 | 3685 ft | 142 kts | 24° |
| 2026-04-29 14:49 | 30.42937 | 103.89467 | 3565 ft | 133 kts | 24° |
| 2026-04-29 14:50 | 30.43791 | 103.89866 | 3431 ft | 132 kts | 24° |
| 2026-04-29 14:50 | 30.44639 | 103.90261 | 3269 ft | 132 kts | 24° |
| 2026-04-29 14:50 | 30.45486 | 103.90656 | 3102 ft | 131 kts | 24° |
| 2026-04-29 14:50 | 30.46330 | 103.91049 | 2927 ft | 131 kts | 25° |
| 2026-04-29 14:51 | 30.47178 | 103.91444 | 2763 ft | 131 kts | 25° |
| 2026-04-29 14:51 | 30.48014 | 103.91834 | 2579 ft | 129 kts | 24° |
| 2026-04-29 14:51 | 30.48841 | 103.92219 | 2414 ft | 128 kts | 24° |
| 2026-04-29 14:51 | 30.49662 | 103.92602 | 2234 ft | 127 kts | 24° |
| 2026-04-29 14:52 | 30.50475 | 103.92979 | 2058 ft | 126 kts | 23° |
| 2026-04-29 14:52 | 30.51288 | 103.93359 | 1875 ft | 125 kts | 24° |
| 2026-04-29 14:52 | 30.52094 | 103.93736 | 1708 ft | 126 kts | 23° |
| 2026-04-29 14:52 | 30.52852 | 103.94089 | 1678 ft | 101 kts | 22° |
| 2026-04-29 14:53 | 30.53389 | 103.94337 | 1675 ft | 73 kts | 22° |
| 2026-04-29 14:53 | 30.53834 | 103.94545 | 1666 ft | 66 kts | 22° |
| 2026-04-29 14:53 | 30.54244 | 103.94735 | 1665 ft | 61 kts | 22° |
| 2026-04-29 14:53 | 30.54622 | 103.94915 | 1652 ft | 57 kts | 21° |
| 2026-04-29 14:54 | 30.54850 | 103.95019 | 1649 ft | 17 kts | 22° |
| 2026-04-29 14:54 | 30.54963 | 103.94993 | 1648 ft | 20 kts | 299° |
| 2026-04-29 14:54 | 30.55023 | 103.94822 | 1652 ft | 25 kts | 293° |
| 2026-04-29 14:54 | 30.55095 | 103.94624 | 1653 ft | 28 kts | 295° |
| 2026-04-29 14:55 | 30.55242 | 103.94461 | 1653 ft | 31 kts | 336° |
| 2026-04-29 14:55 | 30.55451 | 103.94360 | 1651 ft | 34 kts | 336° |
| 2026-04-29 14:55 | 30.55676 | 103.94249 | 1653 ft | 36 kts | 340° |
| 2026-04-29 14:55 | 30.55927 | 103.94225 | 1653 ft | 39 kts | 25° |
| 2026-04-29 14:56 | 30.56185 | 103.94342 | 1653 ft | 41 kts | 24° |
| 2026-04-29 14:56 | 30.56453 | 103.94472 | 1653 ft | 43 kts | 22° |
| 2026-04-29 14:56 | 30.56704 | 103.94591 | 1653 ft | 38 kts | 25° |
| 2026-04-29 14:56 | 30.56951 | 103.94695 | 1653 ft | 33 kts | 11° |
| 2026-04-29 14:57 | 30.57145 | 103.94769 | 1653 ft | 22 kts | 23° |
| 2026-04-29 14:57 | 30.57274 | 103.94744 | 1652 ft | 24 kts | 324° |
| 2026-04-29 14:57 | 30.57408 | 103.94619 | 1652 ft | 27 kts | 352° |
| 2026-04-29 14:57 | 30.57606 | 103.94611 | 1651 ft | 30 kts | 9° |
| 2026-04-29 14:58 | 30.57813 | 103.94683 | 1653 ft | 25 kts | 22° |
| 2026-04-29 14:58 | 30.57833 | 103.94692 | 1653 ft | 0 kts | 22° |
| 2026-04-29 14:59 | 30.57847 | 103.94699 | 1653 ft | 4 kts | 22° |
| 2026-04-29 14:59 | 30.57931 | 103.94738 | 1653 ft | 41 kts | 22° |
| 2026-04-29 15:00 | 30.58254 | 103.94892 | 1652 ft | 32 kts | 22° |
| 2026-04-29 15:00 | 30.58450 | 103.95026 | 1651 ft | 33 kts | 40° |
| 2026-04-29 15:00 | 30.58553 | 103.95155 | 1653 ft | 0 kts | 52° |
| 2026-04-29 15:00 | 30.58568 | 103.95177 | 1653 ft | 25 kts | 52° |
| 2026-04-29 15:01 | 30.58798 | 103.95362 | 1653 ft | 32 kts | 19° |
| 2026-04-29 15:01 | 30.59002 | 103.95453 | 1653 ft | 9 kts | 22° |
| 2026-04-29 15:01 | 30.59009 | 103.95456 | 1653 ft | 2 kts | 22° |
| 2026-04-29 15:01 | 30.59089 | 103.95495 | 1653 ft | 33 kts | 22° |
| 2026-04-29 15:02 | 30.59338 | 103.95617 | 1652 ft | 31 kts | 23° |
| 2026-04-29 15:02 | 30.59453 | 103.95672 | 1652 ft | 1 kts | 25° |
| 2026-04-29 15:02 | 30.59472 | 103.95685 | 1652 ft | 5 kts | 37° |
| 2026-04-29 15:02 | 30.59490 | 103.95737 | 1652 ft | 9 kts | 83° |
| 2026-04-29 15:03 | 30.59547 | 103.95793 | 1652 ft | 13 kts | 30° |
| 2026-04-29 15:03 | 30.59557 | 103.95837 | 1652 ft | 5 kts | 92° |
| 2026-04-29 15:03 | 30.59550 | 103.95865 | 1652 ft | 0 kts | 108° |
| 2026-04-29 15:03 | 30.59548 | 103.95870 | 1652 ft | 2 kts | 110° |
| 2026-04-29 15:04 | 30.59546 | 103.95876 | 1652 ft | 0 kts | 110° |